sensor_id;sensor_type;location;lat;lon;timestamp;P1;durP1;ratioP1;P2;durP2;ratioP2
46941;SDS011;32676;52.630;4.896;2023-11-22T00:00:18;7.80;;;5.20;;
46941;SDS011;32676;52.630;4.896;2023-11-22T00:02:46;8.23;;;5.38;;
46941;SDS011;32676;52.630;4.896;2023-11-22T00:05:13;9.23;;;4.40;;
46941;SDS011;32676;52.630;4.896;2023-11-22T00:07:40;8.10;;;4.60;;
46941;SDS011;32676;52.630;4.896;2023-11-22T00:10:07;14.23;;;5.05;;
46941;SDS011;32676;52.630;4.896;2023-11-22T00:12:34;8.30;;;4.82;;
46941;SDS011;32676;52.630;4.896;2023-11-22T00:15:03;10.13;;;5.05;;
46941;SDS011;32676;52.630;4.896;2023-11-22T00:17:32;8.25;;;5.45;;
46941;SDS011;32676;52.630;4.896;2023-11-22T00:19:59;13.43;;;5.40;;
46941;SDS011;32676;52.630;4.896;2023-11-22T00:22:30;12.18;;;6.28;;
46941;SDS011;32676;52.630;4.896;2023-11-22T00:24:57;9.73;;;5.93;;
46941;SDS011;32676;52.630;4.896;2023-11-22T00:27:23;9.57;;;5.28;;
46941;SDS011;32676;52.630;4.896;2023-11-22T00:29:50;9.98;;;5.82;;
46941;SDS011;32676;52.630;4.896;2023-11-22T00:32:17;8.45;;;5.10;;
46941;SDS011;32676;52.630;4.896;2023-11-22T00:34:45;10.82;;;5.05;;
46941;SDS011;32676;52.630;4.896;2023-11-22T00:37:12;10.90;;;5.68;;
46941;SDS011;32676;52.630;4.896;2023-11-22T00:39:39;10.93;;;6.45;;
46941;SDS011;32676;52.630;4.896;2023-11-22T00:42:05;10.02;;;5.50;;
46941;SDS011;32676;52.630;4.896;2023-11-22T00:44:32;14.30;;;5.82;;
46941;SDS011;32676;52.630;4.896;2023-11-22T00:46:58;11.50;;;6.75;;
46941;SDS011;32676;52.630;4.896;2023-11-22T00:49:25;8.85;;;4.80;;
46941;SDS011;32676;52.630;4.896;2023-11-22T00:51:52;12.73;;;7.25;;
46941;SDS011;32676;52.630;4.896;2023-11-22T00:54:19;10.43;;;5.75;;
46941;SDS011;32676;52.630;4.896;2023-11-22T00:56:46;11.90;;;5.60;;
46941;SDS011;32676;52.630;4.896;2023-11-22T00:59:12;12.38;;;5.65;;
46941;SDS011;32676;52.630;4.896;2023-11-22T01:01:39;11.20;;;5.38;;
46941;SDS011;32676;52.630;4.896;2023-11-22T01:04:06;15.05;;;6.03;;
46941;SDS011;32676;52.630;4.896;2023-11-22T01:06:33;9.45;;;5.75;;
46941;SDS011;32676;52.630;4.896;2023-11-22T01:09:01;8.32;;;5.22;;
46941;SDS011;32676;52.630;4.896;2023-11-22T01:11:27;9.52;;;4.40;;
46941;SDS011;32676;52.630;4.896;2023-11-22T01:13:54;10.65;;;5.93;;
46941;SDS011;32676;52.630;4.896;2023-11-22T01:16:20;8.75;;;5.25;;
46941;SDS011;32676;52.630;4.896;2023-11-22T01:18:46;9.48;;;4.65;;
46941;SDS011;32676;52.630;4.896;2023-11-22T01:21:13;11.40;;;5.50;;
46941;SDS011;32676;52.630;4.896;2023-11-22T01:23:40;11.02;;;5.43;;
46941;SDS011;32676;52.630;4.896;2023-11-22T01:26:07;8.82;;;6.25;;
46941;SDS011;32676;52.630;4.896;2023-11-22T01:28:34;7.97;;;5.07;;
46941;SDS011;32676;52.630;4.896;2023-11-22T01:31:01;9.98;;;5.88;;
46941;SDS011;32676;52.630;4.896;2023-11-22T01:33:28;8.38;;;5.03;;
46941;SDS011;32676;52.630;4.896;2023-11-22T01:35:57;9.10;;;5.03;;
46941;SDS011;32676;52.630;4.896;2023-11-22T01:38:23;8.65;;;4.60;;
46941;SDS011;32676;52.630;4.896;2023-11-22T01:40:50;8.25;;;5.07;;
46941;SDS011;32676;52.630;4.896;2023-11-22T01:43:19;7.80;;;5.03;;
46941;SDS011;32676;52.630;4.896;2023-11-22T01:45:46;10.45;;;4.85;;
46941;SDS011;32676;52.630;4.896;2023-11-22T01:48:12;10.70;;;6.40;;
46941;SDS011;32676;52.630;4.896;2023-11-22T01:50:39;11.63;;;5.75;;
46941;SDS011;32676;52.630;4.896;2023-11-22T01:53:06;10.32;;;5.47;;
46941;SDS011;32676;52.630;4.896;2023-11-22T01:55:33;10.05;;;4.95;;
46941;SDS011;32676;52.630;4.896;2023-11-22T01:58:00;10.70;;;5.35;;
46941;SDS011;32676;52.630;4.896;2023-11-22T02:00:28;8.23;;;4.68;;
46941;SDS011;32676;52.630;4.896;2023-11-22T02:03:01;11.88;;;5.43;;
46941;SDS011;32676;52.630;4.896;2023-11-22T02:05:28;12.68;;;5.63;;
46941;SDS011;32676;52.630;4.896;2023-11-22T02:07:54;10.02;;;4.63;;
46941;SDS011;32676;52.630;4.896;2023-11-22T02:10:21;8.30;;;3.83;;
46941;SDS011;32676;52.630;4.896;2023-11-22T02:12:49;8.90;;;4.72;;
46941;SDS011;32676;52.630;4.896;2023-11-22T02:15:15;7.43;;;5.15;;
46941;SDS011;32676;52.630;4.896;2023-11-22T02:17:43;8.77;;;4.80;;
46941;SDS011;32676;52.630;4.896;2023-11-22T02:20:10;11.30;;;6.35;;
46941;SDS011;32676;52.630;4.896;2023-11-22T02:22:42;9.45;;;5.63;;
46941;SDS011;32676;52.630;4.896;2023-11-22T02:25:10;8.90;;;4.57;;
46941;SDS011;32676;52.630;4.896;2023-11-22T02:27:36;8.55;;;5.45;;
46941;SDS011;32676;52.630;4.896;2023-11-22T02:30:03;8.52;;;4.70;;
46941;SDS011;32676;52.630;4.896;2023-11-22T02:32:30;11.38;;;4.75;;
46941;SDS011;32676;52.630;4.896;2023-11-22T02:34:58;11.38;;;5.22;;
46941;SDS011;32676;52.630;4.896;2023-11-22T02:37:25;10.95;;;6.10;;
46941;SDS011;32676;52.630;4.896;2023-11-22T02:39:54;10.38;;;5.13;;
46941;SDS011;32676;52.630;4.896;2023-11-22T02:42:26;11.13;;;5.63;;
46941;SDS011;32676;52.630;4.896;2023-11-22T02:44:52;8.57;;;5.60;;
46941;SDS011;32676;52.630;4.896;2023-11-22T02:47:19;9.75;;;5.57;;
46941;SDS011;32676;52.630;4.896;2023-11-22T02:49:45;15.77;;;6.20;;
46941;SDS011;32676;52.630;4.896;2023-11-22T02:52:11;10.88;;;5.78;;
46941;SDS011;32676;52.630;4.896;2023-11-22T02:54:40;13.30;;;5.95;;
46941;SDS011;32676;52.630;4.896;2023-11-22T02:57:07;9.68;;;6.20;;
46941;SDS011;32676;52.630;4.896;2023-11-22T02:59:34;7.40;;;4.82;;
46941;SDS011;32676;52.630;4.896;2023-11-22T03:02:01;10.98;;;5.20;;
46941;SDS011;32676;52.630;4.896;2023-11-22T03:04:27;8.52;;;5.55;;
46941;SDS011;32676;52.630;4.896;2023-11-22T03:06:54;9.68;;;5.43;;
46941;SDS011;32676;52.630;4.896;2023-11-22T03:09:20;11.52;;;5.72;;
46941;SDS011;32676;52.630;4.896;2023-11-22T03:11:47;8.52;;;5.57;;
46941;SDS011;32676;52.630;4.896;2023-11-22T03:14:14;10.38;;;5.97;;
46941;SDS011;32676;52.630;4.896;2023-11-22T03:16:43;10.75;;;5.88;;
46941;SDS011;32676;52.630;4.896;2023-11-22T03:19:09;13.07;;;5.47;;
46941;SDS011;32676;52.630;4.896;2023-11-22T03:21:38;11.15;;;6.85;;
46941;SDS011;32676;52.630;4.896;2023-11-22T03:24:06;10.25;;;6.22;;
46941;SDS011;32676;52.630;4.896;2023-11-22T03:26:33;12.02;;;7.97;;
46941;SDS011;32676;52.630;4.896;2023-11-22T03:29:00;14.25;;;6.97;;
46941;SDS011;32676;52.630;4.896;2023-11-22T03:31:26;13.75;;;7.38;;
46941;SDS011;32676;52.630;4.896;2023-11-22T03:33:54;17.25;;;8.82;;
46941;SDS011;32676;52.630;4.896;2023-11-22T03:36:22;15.13;;;8.57;;
46941;SDS011;32676;52.630;4.896;2023-11-22T03:38:49;13.05;;;7.22;;
46941;SDS011;32676;52.630;4.896;2023-11-22T03:41:16;17.48;;;6.32;;
46941;SDS011;32676;52.630;4.896;2023-11-22T03:43:43;12.10;;;7.55;;
46941;SDS011;32676;52.630;4.896;2023-11-22T03:46:09;15.15;;;8.77;;
46941;SDS011;32676;52.630;4.896;2023-11-22T03:48:36;12.38;;;7.43;;
46941;SDS011;32676;52.630;4.896;2023-11-22T03:51:04;11.38;;;6.03;;
46941;SDS011;32676;52.630;4.896;2023-11-22T03:53:31;10.50;;;6.75;;
46941;SDS011;32676;52.630;4.896;2023-11-22T03:55:57;13.27;;;7.55;;
46941;SDS011;32676;52.630;4.896;2023-11-22T03:58:24;11.52;;;6.93;;
46941;SDS011;32676;52.630;4.896;2023-11-22T04:00:51;14.82;;;7.18;;
46941;SDS011;32676;52.630;4.896;2023-11-22T04:03:17;18.17;;;8.63;;
46941;SDS011;32676;52.630;4.896;2023-11-22T04:05:44;14.93;;;6.88;;
46941;SDS011;32676;52.630;4.896;2023-11-22T04:08:11;11.15;;;8.02;;
46941;SDS011;32676;52.630;4.896;2023-11-22T04:10:38;13.00;;;7.20;;
46941;SDS011;32676;52.630;4.896;2023-11-22T04:13:04;14.65;;;7.88;;
46941;SDS011;32676;52.630;4.896;2023-11-22T04:15:30;12.82;;;8.38;;
46941;SDS011;32676;52.630;4.896;2023-11-22T04:17:57;15.23;;;8.15;;
46941;SDS011;32676;52.630;4.896;2023-11-22T04:20:23;15.82;;;8.88;;
46941;SDS011;32676;52.630;4.896;2023-11-22T04:22:50;12.57;;;8.60;;
46941;SDS011;32676;52.630;4.896;2023-11-22T04:25:18;14.23;;;7.70;;
46941;SDS011;32676;52.630;4.896;2023-11-22T04:27:44;14.10;;;7.63;;
46941;SDS011;32676;52.630;4.896;2023-11-22T04:30:12;14.05;;;7.57;;
46941;SDS011;32676;52.630;4.896;2023-11-22T04:32:39;13.85;;;7.90;;
46941;SDS011;32676;52.630;4.896;2023-11-22T04:35:06;15.10;;;8.77;;
46941;SDS011;32676;52.630;4.896;2023-11-22T04:37:34;17.35;;;8.40;;
46941;SDS011;32676;52.630;4.896;2023-11-22T04:40:01;14.73;;;8.60;;
46941;SDS011;32676;52.630;4.896;2023-11-22T04:42:30;16.05;;;11.15;;
46941;SDS011;32676;52.630;4.896;2023-11-22T04:44:56;18.25;;;10.65;;
46941;SDS011;32676;52.630;4.896;2023-11-22T04:47:23;16.85;;;9.27;;
46941;SDS011;32676;52.630;4.896;2023-11-22T04:49:50;16.85;;;9.75;;
46941;SDS011;32676;52.630;4.896;2023-11-22T04:52:16;16.65;;;9.57;;
46941;SDS011;32676;52.630;4.896;2023-11-22T04:54:43;19.08;;;10.20;;
46941;SDS011;32676;52.630;4.896;2023-11-22T04:57:09;18.30;;;10.65;;
46941;SDS011;32676;52.630;4.896;2023-11-22T04:59:37;18.25;;;10.73;;
46941;SDS011;32676;52.630;4.896;2023-11-22T05:02:05;14.98;;;9.82;;
46941;SDS011;32676;52.630;4.896;2023-11-22T05:04:32;14.38;;;9.45;;
46941;SDS011;32676;52.630;4.896;2023-11-22T05:06:58;16.63;;;9.82;;
46941;SDS011;32676;52.630;4.896;2023-11-22T05:09:25;16.73;;;10.70;;
46941;SDS011;32676;52.630;4.896;2023-11-22T05:11:51;15.43;;;9.80;;
46941;SDS011;32676;52.630;4.896;2023-11-22T05:14:18;17.88;;;10.05;;
46941;SDS011;32676;52.630;4.896;2023-11-22T05:16:46;20.23;;;12.40;;
46941;SDS011;32676;52.630;4.896;2023-11-22T05:19:12;19.17;;;10.55;;
46941;SDS011;32676;52.630;4.896;2023-11-22T05:21:39;17.33;;;10.32;;
46941;SDS011;32676;52.630;4.896;2023-11-22T05:24:06;15.73;;;10.63;;
46941;SDS011;32676;52.630;4.896;2023-11-22T05:26:33;17.52;;;8.82;;
46941;SDS011;32676;52.630;4.896;2023-11-22T05:29:00;21.17;;;10.25;;
46941;SDS011;32676;52.630;4.896;2023-11-22T05:31:26;17.27;;;11.18;;
46941;SDS011;32676;52.630;4.896;2023-11-22T05:33:54;20.35;;;10.85;;
46941;SDS011;32676;52.630;4.896;2023-11-22T05:36:21;16.52;;;9.90;;
46941;SDS011;32676;52.630;4.896;2023-11-22T05:38:47;17.30;;;10.85;;
46941;SDS011;32676;52.630;4.896;2023-11-22T05:41:14;18.63;;;12.15;;
46941;SDS011;32676;52.630;4.896;2023-11-22T05:43:41;16.23;;;11.07;;
46941;SDS011;32676;52.630;4.896;2023-11-22T05:46:08;18.88;;;10.27;;
46941;SDS011;32676;52.630;4.896;2023-11-22T05:48:34;16.50;;;9.23;;
46941;SDS011;32676;52.630;4.896;2023-11-22T05:51:02;17.08;;;9.63;;
46941;SDS011;32676;52.630;4.896;2023-11-22T05:53:28;16.17;;;9.98;;
46941;SDS011;32676;52.630;4.896;2023-11-22T05:55:55;20.17;;;11.18;;
46941;SDS011;32676;52.630;4.896;2023-11-22T05:58:22;14.43;;;8.98;;
46941;SDS011;32676;52.630;4.896;2023-11-22T06:00:48;17.23;;;9.55;;
46941;SDS011;32676;52.630;4.896;2023-11-22T06:03:14;22.73;;;10.70;;
46941;SDS011;32676;52.630;4.896;2023-11-22T06:05:41;14.77;;;8.65;;
46941;SDS011;32676;52.630;4.896;2023-11-22T06:08:09;27.10;;;9.43;;
46941;SDS011;32676;52.630;4.896;2023-11-22T06:10:35;16.80;;;8.82;;
46941;SDS011;32676;52.630;4.896;2023-11-22T06:13:03;21.27;;;9.73;;
46941;SDS011;32676;52.630;4.896;2023-11-22T06:15:29;15.68;;;9.18;;
46941;SDS011;32676;52.630;4.896;2023-11-22T06:17:56;15.32;;;9.07;;
46941;SDS011;32676;52.630;4.896;2023-11-22T06:20:22;16.35;;;8.43;;
46941;SDS011;32676;52.630;4.896;2023-11-22T06:22:51;18.05;;;8.65;;
46941;SDS011;32676;52.630;4.896;2023-11-22T06:25:19;17.27;;;8.90;;
46941;SDS011;32676;52.630;4.896;2023-11-22T06:27:45;15.32;;;8.23;;
46941;SDS011;32676;52.630;4.896;2023-11-22T06:30:12;16.17;;;10.18;;
46941;SDS011;32676;52.630;4.896;2023-11-22T06:32:39;17.77;;;8.73;;
46941;SDS011;32676;52.630;4.896;2023-11-22T06:35:07;13.15;;;8.07;;
46941;SDS011;32676;52.630;4.896;2023-11-22T06:37:34;15.05;;;9.10;;
46941;SDS011;32676;52.630;4.896;2023-11-22T06:40:01;14.88;;;7.97;;
46941;SDS011;32676;52.630;4.896;2023-11-22T06:42:30;13.13;;;6.72;;
46941;SDS011;32676;52.630;4.896;2023-11-22T06:44:56;16.65;;;8.82;;
46941;SDS011;32676;52.630;4.896;2023-11-22T06:47:25;21.42;;;8.00;;
46941;SDS011;32676;52.630;4.896;2023-11-22T06:49:52;12.27;;;6.95;;
46941;SDS011;32676;52.630;4.896;2023-11-22T06:52:18;15.63;;;8.25;;
46941;SDS011;32676;52.630;4.896;2023-11-22T06:54:45;15.93;;;8.43;;
46941;SDS011;32676;52.630;4.896;2023-11-22T06:57:11;16.48;;;7.82;;
46941;SDS011;32676;52.630;4.896;2023-11-22T06:59:39;21.23;;;9.65;;
46941;SDS011;32676;52.630;4.896;2023-11-22T07:02:06;20.38;;;8.52;;
46941;SDS011;32676;52.630;4.896;2023-11-22T07:04:32;14.68;;;7.25;;
46941;SDS011;32676;52.630;4.896;2023-11-22T07:06:59;15.23;;;7.70;;
46941;SDS011;32676;52.630;4.896;2023-11-22T07:09:27;15.35;;;8.70;;
46941;SDS011;32676;52.630;4.896;2023-11-22T07:11:53;13.98;;;7.70;;
46941;SDS011;32676;52.630;4.896;2023-11-22T07:14:22;28.35;;;9.48;;
46941;SDS011;32676;52.630;4.896;2023-11-22T07:16:51;14.30;;;8.25;;
46941;SDS011;32676;52.630;4.896;2023-11-22T07:19:17;18.05;;;7.78;;
46941;SDS011;32676;52.630;4.896;2023-11-22T07:21:44;17.40;;;8.95;;
46941;SDS011;32676;52.630;4.896;2023-11-22T07:24:13;17.92;;;8.95;;
46941;SDS011;32676;52.630;4.896;2023-11-22T07:26:40;14.68;;;8.35;;
46941;SDS011;32676;52.630;4.896;2023-11-22T07:29:07;18.33;;;9.60;;
46941;SDS011;32676;52.630;4.896;2023-11-22T07:31:34;16.92;;;8.95;;
46941;SDS011;32676;52.630;4.896;2023-11-22T07:34:02;18.38;;;9.25;;
46941;SDS011;32676;52.630;4.896;2023-11-22T07:36:29;19.83;;;9.20;;
46941;SDS011;32676;52.630;4.896;2023-11-22T07:38:55;17.15;;;8.77;;
46941;SDS011;32676;52.630;4.896;2023-11-22T07:41:22;14.45;;;9.00;;
46941;SDS011;32676;52.630;4.896;2023-11-22T07:43:48;23.00;;;9.20;;
46941;SDS011;32676;52.630;4.896;2023-11-22T07:46:15;16.15;;;8.90;;
46941;SDS011;32676;52.630;4.896;2023-11-22T07:48:44;17.95;;;8.90;;
46941;SDS011;32676;52.630;4.896;2023-11-22T07:51:14;17.33;;;10.77;;
46941;SDS011;32676;52.630;4.896;2023-11-22T07:53:41;19.80;;;10.85;;
46941;SDS011;32676;52.630;4.896;2023-11-22T07:56:08;17.20;;;8.23;;
46941;SDS011;32676;52.630;4.896;2023-11-22T07:58:36;21.23;;;10.00;;
46941;SDS011;32676;52.630;4.896;2023-11-22T08:01:03;16.85;;;8.98;;
46941;SDS011;32676;52.630;4.896;2023-11-22T08:03:31;18.52;;;9.15;;
46941;SDS011;32676;52.630;4.896;2023-11-22T08:05:59;15.50;;;9.05;;
46941;SDS011;32676;52.630;4.896;2023-11-22T08:08:29;19.48;;;8.90;;
46941;SDS011;32676;52.630;4.896;2023-11-22T08:10:55;23.10;;;9.55;;
46941;SDS011;32676;52.630;4.896;2023-11-22T08:13:22;23.27;;;11.50;;
46941;SDS011;32676;52.630;4.896;2023-11-22T08:15:49;19.10;;;8.70;;
46941;SDS011;32676;52.630;4.896;2023-11-22T08:18:16;19.20;;;9.30;;
46941;SDS011;32676;52.630;4.896;2023-11-22T08:20:42;17.88;;;10.60;;
46941;SDS011;32676;52.630;4.896;2023-11-22T08:23:09;20.48;;;10.05;;
46941;SDS011;32676;52.630;4.896;2023-11-22T08:25:39;20.45;;;10.07;;
46941;SDS011;32676;52.630;4.896;2023-11-22T08:28:05;18.50;;;10.55;;
46941;SDS011;32676;52.630;4.896;2023-11-22T08:30:33;24.60;;;9.75;;
46941;SDS011;32676;52.630;4.896;2023-11-22T08:33:00;19.88;;;9.30;;
46941;SDS011;32676;52.630;4.896;2023-11-22T08:35:27;20.52;;;10.02;;
46941;SDS011;32676;52.630;4.896;2023-11-22T08:37:53;17.48;;;9.05;;
46941;SDS011;32676;52.630;4.896;2023-11-22T08:40:22;18.30;;;9.50;;
46941;SDS011;32676;52.630;4.896;2023-11-22T08:42:52;16.73;;;8.50;;
46941;SDS011;32676;52.630;4.896;2023-11-22T08:45:19;18.23;;;10.68;;
46941;SDS011;32676;52.630;4.896;2023-11-22T08:47:45;17.80;;;9.43;;
46941;SDS011;32676;52.630;4.896;2023-11-22T08:50:12;19.65;;;10.32;;
46941;SDS011;32676;52.630;4.896;2023-11-22T08:52:40;17.02;;;9.68;;
46941;SDS011;32676;52.630;4.896;2023-11-22T08:55:07;19.88;;;11.27;;
46941;SDS011;32676;52.630;4.896;2023-11-22T08:57:35;18.23;;;9.02;;
46941;SDS011;32676;52.630;4.896;2023-11-22T09:00:04;18.00;;;10.07;;
46941;SDS011;32676;52.630;4.896;2023-11-22T09:02:33;14.73;;;8.75;;
46941;SDS011;32676;52.630;4.896;2023-11-22T09:05:01;22.75;;;10.63;;
46941;SDS011;32676;52.630;4.896;2023-11-22T09:07:28;23.92;;;11.30;;
46941;SDS011;32676;52.630;4.896;2023-11-22T09:09:56;20.27;;;10.48;;
46941;SDS011;32676;52.630;4.896;2023-11-22T09:12:23;23.92;;;12.38;;
46941;SDS011;32676;52.630;4.896;2023-11-22T09:14:52;21.08;;;10.82;;
46941;SDS011;32676;52.630;4.896;2023-11-22T09:17:19;21.95;;;10.65;;
46941;SDS011;32676;52.630;4.896;2023-11-22T09:19:46;18.38;;;10.43;;
46941;SDS011;32676;52.630;4.896;2023-11-22T09:22:13;19.23;;;10.38;;
46941;SDS011;32676;52.630;4.896;2023-11-22T09:24:40;21.88;;;10.10;;
46941;SDS011;32676;52.630;4.896;2023-11-22T09:27:05;26.02;;;12.65;;
46941;SDS011;32676;52.630;4.896;2023-11-22T09:29:35;19.88;;;11.77;;
46941;SDS011;32676;52.630;4.896;2023-11-22T09:32:01;22.38;;;11.85;;
46941;SDS011;32676;52.630;4.896;2023-11-22T09:34:29;20.33;;;11.68;;
46941;SDS011;32676;52.630;4.896;2023-11-22T09:36:56;29.77;;;11.52;;
46941;SDS011;32676;52.630;4.896;2023-11-22T09:39:23;25.27;;;11.27;;
46941;SDS011;32676;52.630;4.896;2023-11-22T09:41:50;21.40;;;11.65;;
46941;SDS011;32676;52.630;4.896;2023-11-22T09:44:18;27.63;;;12.48;;
46941;SDS011;32676;52.630;4.896;2023-11-22T09:46:44;22.30;;;11.35;;
46941;SDS011;32676;52.630;4.896;2023-11-22T09:49:17;24.42;;;12.15;;
46941;SDS011;32676;52.630;4.896;2023-11-22T09:51:48;29.20;;;13.52;;
46941;SDS011;32676;52.630;4.896;2023-11-22T09:54:17;23.38;;;11.77;;
46941;SDS011;32676;52.630;4.896;2023-11-22T09:56:45;48.47;;;14.05;;
46941;SDS011;32676;52.630;4.896;2023-11-22T09:59:15;17.52;;;10.63;;
46941;SDS011;32676;52.630;4.896;2023-11-22T10:01:44;21.92;;;11.63;;
46941;SDS011;32676;52.630;4.896;2023-11-22T10:04:11;21.85;;;12.05;;
46941;SDS011;32676;52.630;4.896;2023-11-22T10:06:37;35.10;;;14.63;;
46941;SDS011;32676;52.630;4.896;2023-11-22T10:09:07;22.42;;;12.48;;
46941;SDS011;32676;52.630;4.896;2023-11-22T10:11:34;20.20;;;10.65;;
46941;SDS011;32676;52.630;4.896;2023-11-22T10:14:04;21.55;;;11.82;;
46941;SDS011;32676;52.630;4.896;2023-11-22T10:16:30;24.23;;;11.38;;
46941;SDS011;32676;52.630;4.896;2023-11-22T10:18:57;19.90;;;11.93;;
46941;SDS011;32676;52.630;4.896;2023-11-22T10:21:24;21.27;;;11.07;;
46941;SDS011;32676;52.630;4.896;2023-11-22T10:23:53;18.30;;;11.05;;
46941;SDS011;32676;52.630;4.896;2023-11-22T10:26:22;24.20;;;10.77;;
46941;SDS011;32676;52.630;4.896;2023-11-22T10:28:50;25.15;;;11.10;;
46941;SDS011;32676;52.630;4.896;2023-11-22T10:31:16;27.77;;;12.32;;
46941;SDS011;32676;52.630;4.896;2023-11-22T10:33:43;21.50;;;12.60;;
46941;SDS011;32676;52.630;4.896;2023-11-22T10:36:09;25.15;;;11.63;;
46941;SDS011;32676;52.630;4.896;2023-11-22T10:38:37;35.38;;;11.48;;
46941;SDS011;32676;52.630;4.896;2023-11-22T10:41:04;22.05;;;10.32;;
46941;SDS011;32676;52.630;4.896;2023-11-22T10:43:32;24.17;;;11.40;;
46941;SDS011;32676;52.630;4.896;2023-11-22T10:46:01;25.23;;;11.55;;
46941;SDS011;32676;52.630;4.896;2023-11-22T10:48:29;23.00;;;10.60;;
46941;SDS011;32676;52.630;4.896;2023-11-22T10:50:59;23.88;;;10.80;;
46941;SDS011;32676;52.630;4.896;2023-11-22T10:55:25;18.02;;;10.40;;
46941;SDS011;32676;52.630;4.896;2023-11-22T10:57:54;20.13;;;11.02;;
46941;SDS011;32676;52.630;4.896;2023-11-22T11:00:22;24.27;;;11.77;;
46941;SDS011;32676;52.630;4.896;2023-11-22T11:02:53;20.15;;;11.02;;
46941;SDS011;32676;52.630;4.896;2023-11-22T11:05:29;18.75;;;11.48;;
46941;SDS011;32676;52.630;4.896;2023-11-22T11:07:58;22.13;;;11.82;;
46941;SDS011;32676;52.630;4.896;2023-11-22T11:10:29;18.67;;;11.18;;
46941;SDS011;32676;52.630;4.896;2023-11-22T11:12:57;21.90;;;12.05;;
46941;SDS011;32676;52.630;4.896;2023-11-22T11:15:25;19.63;;;10.82;;
46941;SDS011;32676;52.630;4.896;2023-11-22T11:17:52;14.98;;;9.27;;
46941;SDS011;32676;52.630;4.896;2023-11-22T11:20:19;24.55;;;11.20;;
46941;SDS011;32676;52.630;4.896;2023-11-22T11:22:49;18.20;;;10.30;;
46941;SDS011;32676;52.630;4.896;2023-11-22T11:25:17;20.45;;;11.02;;
46941;SDS011;32676;52.630;4.896;2023-11-22T11:27:45;18.73;;;10.52;;
46941;SDS011;32676;52.630;4.896;2023-11-22T11:33:18;17.05;;;10.38;;
46941;SDS011;32676;52.630;4.896;2023-11-22T11:35:52;19.48;;;11.38;;
46941;SDS011;32676;52.630;4.896;2023-11-22T11:38:19;18.13;;;9.57;;
46941;SDS011;32676;52.630;4.896;2023-11-22T11:40:46;16.58;;;9.63;;
46941;SDS011;32676;52.630;4.896;2023-11-22T11:43:16;15.25;;;9.35;;
46941;SDS011;32676;52.630;4.896;2023-11-22T11:45:47;17.70;;;8.75;;
46941;SDS011;32676;52.630;4.896;2023-11-22T11:48:15;17.50;;;9.48;;
46941;SDS011;32676;52.630;4.896;2023-11-22T11:50:42;17.60;;;9.77;;
46941;SDS011;32676;52.630;4.896;2023-11-22T11:53:09;17.33;;;8.35;;
46941;SDS011;32676;52.630;4.896;2023-11-22T11:55:36;19.23;;;8.70;;
46941;SDS011;32676;52.630;4.896;2023-11-22T11:58:04;16.13;;;8.27;;
46941;SDS011;32676;52.630;4.896;2023-11-22T12:00:34;12.63;;;7.68;;
46941;SDS011;32676;52.630;4.896;2023-11-22T12:03:00;16.10;;;8.82;;
46941;SDS011;32676;52.630;4.896;2023-11-22T12:05:27;15.02;;;8.32;;
46941;SDS011;32676;52.630;4.896;2023-11-22T12:07:54;16.45;;;7.85;;
46941;SDS011;32676;52.630;4.896;2023-11-22T12:10:21;13.43;;;7.82;;
46941;SDS011;32676;52.630;4.896;2023-11-22T12:12:49;15.15;;;6.90;;
46941;SDS011;32676;52.630;4.896;2023-11-22T12:15:17;12.68;;;8.80;;
46941;SDS011;32676;52.630;4.896;2023-11-22T12:17:46;15.77;;;6.95;;
46941;SDS011;32676;52.630;4.896;2023-11-22T12:20:14;12.32;;;7.88;;
46941;SDS011;32676;52.630;4.896;2023-11-22T12:22:42;14.38;;;7.53;;
46941;SDS011;32676;52.630;4.896;2023-11-22T12:25:10;14.18;;;7.72;;
46941;SDS011;32676;52.630;4.896;2023-11-22T12:27:41;12.20;;;7.38;;
46941;SDS011;32676;52.630;4.896;2023-11-22T12:30:09;13.30;;;6.65;;
46941;SDS011;32676;52.630;4.896;2023-11-22T12:32:38;13.82;;;6.75;;
46941;SDS011;32676;52.630;4.896;2023-11-22T12:35:08;12.38;;;6.40;;
46941;SDS011;32676;52.630;4.896;2023-11-22T12:37:36;9.75;;;6.57;;
46941;SDS011;32676;52.630;4.896;2023-11-22T12:40:09;13.07;;;6.22;;
46941;SDS011;32676;52.630;4.896;2023-11-22T12:42:45;11.48;;;6.47;;
46941;SDS011;32676;52.630;4.896;2023-11-22T12:45:17;9.88;;;6.45;;
46941;SDS011;32676;52.630;4.896;2023-11-22T12:47:45;12.00;;;8.07;;
46941;SDS011;32676;52.630;4.896;2023-11-22T12:53:07;12.05;;;7.45;;
46941;SDS011;32676;52.630;4.896;2023-11-22T12:55:34;17.70;;;9.95;;
46941;SDS011;32676;52.630;4.896;2023-11-22T12:58:00;15.75;;;8.80;;
46941;SDS011;32676;52.630;4.896;2023-11-22T13:00:28;13.65;;;8.15;;
46941;SDS011;32676;52.630;4.896;2023-11-22T13:02:55;17.60;;;8.45;;
46941;SDS011;32676;52.630;4.896;2023-11-22T13:05:22;16.77;;;8.88;;
46941;SDS011;32676;52.630;4.896;2023-11-22T13:07:50;16.70;;;8.15;;
46941;SDS011;32676;52.630;4.896;2023-11-22T13:10:18;13.48;;;8.00;;
46941;SDS011;32676;52.630;4.896;2023-11-22T13:12:50;9.38;;;6.53;;
46941;SDS011;32676;52.630;4.896;2023-11-22T13:15:16;15.02;;;7.75;;
46941;SDS011;32676;52.630;4.896;2023-11-22T13:17:43;15.27;;;7.60;;
46941;SDS011;32676;52.630;4.896;2023-11-22T13:20:09;11.98;;;6.80;;
46941;SDS011;32676;52.630;4.896;2023-11-22T13:22:39;10.55;;;6.90;;
46941;SDS011;32676;52.630;4.896;2023-11-22T13:25:08;16.52;;;7.65;;
46941;SDS011;32676;52.630;4.896;2023-11-22T13:27:35;12.88;;;7.75;;
46941;SDS011;32676;52.630;4.896;2023-11-22T13:30:02;15.57;;;8.32;;
46941;SDS011;32676;52.630;4.896;2023-11-22T13:32:30;13.43;;;8.32;;
46941;SDS011;32676;52.630;4.896;2023-11-22T13:34:56;16.20;;;8.38;;
46941;SDS011;32676;52.630;4.896;2023-11-22T13:37:23;11.88;;;7.47;;
46941;SDS011;32676;52.630;4.896;2023-11-22T13:39:50;26.50;;;9.35;;
46941;SDS011;32676;52.630;4.896;2023-11-22T13:42:18;15.65;;;8.65;;
46941;SDS011;32676;52.630;4.896;2023-11-22T13:44:45;14.65;;;9.05;;
46941;SDS011;32676;52.630;4.896;2023-11-22T13:47:12;11.52;;;7.05;;
46941;SDS011;32676;52.630;4.896;2023-11-22T13:49:39;12.40;;;7.63;;
46941;SDS011;32676;52.630;4.896;2023-11-22T13:52:07;14.98;;;8.10;;
46941;SDS011;32676;52.630;4.896;2023-11-22T13:54:34;14.05;;;8.27;;
46941;SDS011;32676;52.630;4.896;2023-11-22T13:57:04;16.30;;;8.05;;
46941;SDS011;32676;52.630;4.896;2023-11-22T13:59:32;16.77;;;8.75;;
46941;SDS011;32676;52.630;4.896;2023-11-22T14:01:59;14.27;;;9.60;;
46941;SDS011;32676;52.630;4.896;2023-11-22T14:04:26;16.83;;;8.23;;
46941;SDS011;32676;52.630;4.896;2023-11-22T14:06:52;20.27;;;10.02;;
46941;SDS011;32676;52.630;4.896;2023-11-22T14:09:19;22.55;;;8.27;;
46941;SDS011;32676;52.630;4.896;2023-11-22T14:11:45;14.63;;;9.07;;
46941;SDS011;32676;52.630;4.896;2023-11-22T14:14:12;18.45;;;9.20;;
46941;SDS011;32676;52.630;4.896;2023-11-22T14:16:40;12.65;;;8.00;;
46941;SDS011;32676;52.630;4.896;2023-11-22T14:19:09;15.05;;;7.40;;
46941;SDS011;32676;52.630;4.896;2023-11-22T14:21:36;13.88;;;8.25;;
46941;SDS011;32676;52.630;4.896;2023-11-22T14:24:03;13.68;;;7.93;;
46941;SDS011;32676;52.630;4.896;2023-11-22T14:26:30;13.65;;;8.20;;
46941;SDS011;32676;52.630;4.896;2023-11-22T14:28:56;15.18;;;7.15;;
46941;SDS011;32676;52.630;4.896;2023-11-22T14:31:23;16.45;;;9.13;;
46941;SDS011;32676;52.630;4.896;2023-11-22T14:33:51;14.98;;;7.47;;
46941;SDS011;32676;52.630;4.896;2023-11-22T14:36:17;14.30;;;7.85;;
46941;SDS011;32676;52.630;4.896;2023-11-22T14:38:44;17.02;;;8.65;;
46941;SDS011;32676;52.630;4.896;2023-11-22T14:41:12;11.77;;;7.50;;